Time,TemperatureF,DewpointF,PressureIn,WindDirection,WindDirectionDegrees,WindSpeedMPH,WindSpeedGustMPH,Humidity,HourlyPrecipIn,Conditions,Clouds,dailyrainin,SoftwareType,DateUTC
2013-01-06 16:12:00,38.0,36.0,-100.00,SW,230,6.0,12.0,94,-99.99,,,-99.99,,2013-01-06 21:12:00,
2013-01-06 16:22:00,38.0,36.0,-100.00,SW,235,9.0,13.0,94,-99.99,,,-99.99,,2013-01-06 21:22:00,
2013-01-06 16:33:00,37.0,36.0,-100.00,SW,225,6.0,14.0,95,-99.99,,,-99.99,,2013-01-06 21:33:00,
2013-01-06 16:42:00,37.0,36.0,-100.00,WSW,250,10.0,13.0,95,-99.99,,,-99.99,,2013-01-06 21:42:00,
2013-01-06 16:52:00,37.0,36.0,-100.00,WSW,255,6.0,14.0,95,-99.99,,,-99.99,,2013-01-06 21:52:00,
2013-01-06 17:02:00,37.0,36.0,-100.00,WSW,245,4.0,9.0,95,-99.99,,,-99.99,,2013-01-06 22:02:00,
2013-01-06 17:12:00,37.0,36.0,-100.00,WSW,255,6.0,11.0,96,-99.99,,,-99.99,,2013-01-06 22:12:00,
2013-01-06 17:22:00,37.0,36.0,-100.00,West,265,7.0,11.0,96,-99.99,,,-99.99,,2013-01-06 22:22:00,
2013-01-06 17:33:00,36.0,36.0,-100.00,West,265,7.0,11.0,96,-99.99,,,-99.99,,2013-01-06 22:33:00,
2013-01-06 17:43:00,36.0,36.0,-100.00,WSW,245,8.0,12.0,97,-99.99,,,-99.99,,2013-01-06 22:43:00,
2013-01-06 17:52:00,36.0,35.0,-100.00,WSW,240,7.0,13.0,97,-99.99,,,-99.99,,2013-01-06 22:52:00,
2013-01-06 18:02:00,36.0,35.0,-100.00,SW,235,6.0,10.0,97,-99.99,,,-99.99,,2013-01-06 23:02:00,
2013-01-06 18:12:00,36.0,35.0,-100.00,WSW,245,8.0,12.0,98,-99.99,,,-99.99,,2013-01-06 23:12:00,
2013-01-06 18:22:00,36.0,35.0,-100.00,SW,235,10.0,16.0,98,-99.99,,,-99.99,,2013-01-06 23:22:00,
2013-01-06 18:33:00,36.0,35.0,-100.00,West,265,6.0,13.0,98,-99.99,,,-99.99,,2013-01-06 23:33:00,
2013-01-06 18:43:00,35.0,35.0,-100.00,WSW,250,9.0,15.0,98,-99.99,,,-99.99,,2013-01-06 23:43:00,
2013-01-06 18:52:00,35.0,34.0,-100.00,West,275,7.0,17.0,98,-99.99,,,-99.99,,2013-01-06 23:52:00,
2013-01-06 19:02:00,35.0,34.0,-100.00,WSW,250,6.0,14.0,98,-99.99,,,-99.99,,2013-01-07 00:02:00,
2013-01-06 19:12:00,35.0,34.0,-100.00,WNW,285,10.0,16.0,98,-99.99,,,-99.99,,2013-01-07 00:12:00,
2013-01-06 19:23:00,35.0,34.0,-100.00,West,265,11.0,17.0,98,-99.99,,,-99.99,,2013-01-07 00:23:00,
2013-01-06 19:33:00,34.0,34.0,-100.00,WNW,295,13.0,17.0,97,-99.99,,,-99.99,,2013-01-07 00:33:00,
2013-01-06 19:42:00,34.0,34.0,-100.00,WSW,255,9.0,17.0,97,-99.99,,,-99.99,,2013-01-07 00:42:00,
2013-01-06 19:53:00,34.0,33.0,-100.00,WSW,255,9.0,13.0,97,-99.99,,,-99.99,,2013-01-07 00:53:00,
2013-01-06 20:02:00,34.0,33.0,-100.00,WSW,245,13.0,19.0,97,-99.99,,,-99.99,,2013-01-07 01:02:00,
2013-01-06 20:12:00,34.0,33.0,-100.00,West,270,13.0,19.0,97,-99.99,,,-99.99,,2013-01-07 01:12:00,
2013-01-06 20:23:00,34.0,33.0,-100.00,WSW,250,7.0,16.0,97,-99.99,,,-99.99,,2013-01-07 01:23:00,
2013-01-06 20:32:00,34.0,33.0,-100.00,WSW,250,7.0,15.0,97,-99.99,,,-99.99,,2013-01-07 01:32:00,
2013-01-06 20:42:00,34.0,33.0,-100.00,WSW,245,6.0,12.0,97,-99.99,,,-99.99,,2013-01-07 01:42:00,
2013-01-06 20:52:00,34.0,33.0,-100.00,WSW,245,9.0,15.0,97,-99.99,,,-99.99,,2013-01-07 01:52:00,
2013-01-06 21:02:00,34.0,33.0,-100.00,WSW,255,9.0,15.0,97,-99.99,,,-99.99,,2013-01-07 02:02:00,
2013-01-06 21:12:00,34.0,33.0,-100.00,West,265,7.0,15.0,97,-99.99,,,-99.99,,2013-01-07 02:12:00,
2013-01-06 21:23:00,34.0,33.0,-100.00,WSW,250,7.0,13.0,97,-99.99,,,-99.99,,2013-01-07 02:23:00,
2013-01-06 21:32:00,33.0,33.0,-100.00,West,260,7.0,17.0,97,-99.99,,,-99.99,,2013-01-07 02:32:00,
2013-01-06 21:42:00,33.0,33.0,-100.00,WSW,240,9.0,15.0,97,-99.99,,,-99.99,,2013-01-07 02:42:00,
2013-01-06 21:52:00,33.0,33.0,-100.00,WSW,255,10.0,16.0,97,-99.99,,,-99.99,,2013-01-07 02:52:00,
2013-01-06 22:02:00,33.0,33.0,-100.00,WSW,255,9.0,14.0,97,-99.99,,,-99.99,,2013-01-07 03:02:00,
2013-01-06 22:12:00,33.0,32.0,-100.00,WSW,250,9.0,16.0,97,-99.99,,,-99.99,,2013-01-07 03:12:00,
2013-01-06 22:22:00,33.0,32.0,-100.00,SW,235,6.0,12.0,97,-99.99,,,-99.99,,2013-01-07 03:22:00,
2013-01-06 22:33:00,33.0,32.0,-100.00,SW,235,8.0,16.0,97,-99.99,,,-99.99,,2013-01-07 03:33:00,
2013-01-06 22:43:00,33.0,32.0,-100.00,WSW,240,10.0,18.0,97,-99.99,,,-99.99,,2013-01-07 03:43:00,
2013-01-06 22:52:00,33.0,32.0,-100.00,West,260,8.0,12.0,97,-99.99,,,-99.99,,2013-01-07 03:52:00,
2013-01-06 23:02:00,33.0,32.0,-100.00,WSW,255,6.0,12.0,97,-99.99,,,-99.99,,2013-01-07 04:02:00,
2013-01-06 23:12:00,33.0,32.0,-100.00,WSW,245,9.0,14.0,97,-99.99,,,-99.99,,2013-01-07 04:12:00,
2013-01-06 23:22:00,33.0,32.0,-100.00,WSW,240,7.0,12.0,97,-99.99,,,-99.99,,2013-01-07 04:22:00,
2013-01-06 23:32:00,33.0,32.0,-100.00,WSW,245,9.0,16.0,97,-99.99,,,-99.99,,2013-01-07 04:32:00,
2013-01-06 23:42:00,32.0,32.0,-100.00,WSW,240,11.0,17.0,97,-99.99,,,-99.99,,2013-01-07 04:42:00,
2013-01-06 23:52:00,32.0,32.0,-100.00,WSW,250,7.0,16.0,97,-99.99,,,-99.99,,2013-01-07 04:52:00,